Portada
METAR-TAF:

METAR-TAF

Aeropuertos :

Iranshahr, Irán

latitud: 27-12N, longitud: 060-42E, altitud: 591 m

Observación

El informe se hizo hace 47 minutos, a las 19:00 UTC
Viento 14 kt del norte
Temperatura 16°C
Humedad 31%
Presión 1019 hPa
Visibilidad: 3000 m
arena

METAR: OIZI 201900Z 36014KT 3000 SA NSC 16/M01 Q1019

Hora: 23:17 (19:47 UTC)


TAF: falta

Observaciones y pronósticos meteorológicos de más de 4000 aeropuertos (mensajes METAR y TAF).

Los puntos amarillos y rojos representan las estaciones disponibles.

Ponga el ratón en el punto deseado para ver el nombre de la estación.

Haga clic para ver las observaciones y los pronósticos meteorológicos.

Para cambiar el mapa : haga clic en los botones verdes con una cruz de color negro para hacer un zoom, en el botón verde con un guión para alejar o en las flechas verdes para mapas adyacentes.


METAR-TAF: